sensor_id;sensor_type;location;lat;lon;timestamp;P1;durP1;ratioP1;P2;durP2;ratioP2
10565;SDS011;5331;48.148;16.326;2022-11-09T00:01:32;53.33;;;23.65;;
10565;SDS011;5331;48.148;16.326;2022-11-09T00:04:00;52.72;;;22.85;;
10565;SDS011;5331;48.148;16.326;2022-11-09T00:06:28;55.55;;;24.77;;
10565;SDS011;5331;48.148;16.326;2022-11-09T00:08:56;54.33;;;24.88;;
10565;SDS011;5331;48.148;16.326;2022-11-09T00:11:23;47.30;;;22.35;;
10565;SDS011;5331;48.148;16.326;2022-11-09T00:13:51;56.88;;;24.38;;
10565;SDS011;5331;48.148;16.326;2022-11-09T00:16:19;60.88;;;24.40;;
10565;SDS011;5331;48.148;16.326;2022-11-09T00:18:47;51.65;;;22.45;;
10565;SDS011;5331;48.148;16.326;2022-11-09T00:21:17;50.80;;;22.27;;
10565;SDS011;5331;48.148;16.326;2022-11-09T00:23:45;50.40;;;22.90;;
10565;SDS011;5331;48.148;16.326;2022-11-09T00:26:12;47.67;;;22.35;;
10565;SDS011;5331;48.148;16.326;2022-11-09T00:28:40;49.33;;;22.25;;
10565;SDS011;5331;48.148;16.326;2022-11-09T00:31:10;52.65;;;23.73;;
10565;SDS011;5331;48.148;16.326;2022-11-09T00:33:38;50.67;;;22.85;;
10565;SDS011;5331;48.148;16.326;2022-11-09T00:36:06;49.80;;;22.52;;
10565;SDS011;5331;48.148;16.326;2022-11-09T00:38:36;51.05;;;22.58;;
10565;SDS011;5331;48.148;16.326;2022-11-09T00:41:05;49.30;;;22.73;;
10565;SDS011;5331;48.148;16.326;2022-11-09T00:43:33;45.00;;;23.85;;
10565;SDS011;5331;48.148;16.326;2022-11-09T00:46:00;52.05;;;21.98;;
10565;SDS011;5331;48.148;16.326;2022-11-09T00:48:28;51.22;;;22.30;;
10565;SDS011;5331;48.148;16.326;2022-11-09T00:50:55;54.40;;;23.77;;
10565;SDS011;5331;48.148;16.326;2022-11-09T00:53:23;48.33;;;22.17;;
10565;SDS011;5331;48.148;16.326;2022-11-09T00:55:54;48.28;;;22.52;;
10565;SDS011;5331;48.148;16.326;2022-11-09T00:58:21;48.72;;;20.95;;
10565;SDS011;5331;48.148;16.326;2022-11-09T01:00:49;47.30;;;22.08;;
10565;SDS011;5331;48.148;16.326;2022-11-09T01:03:17;50.30;;;23.15;;
10565;SDS011;5331;48.148;16.326;2022-11-09T01:05:45;48.70;;;22.38;;
10565;SDS011;5331;48.148;16.326;2022-11-09T01:08:12;49.60;;;22.67;;
10565;SDS011;5331;48.148;16.326;2022-11-09T01:10:40;52.85;;;22.33;;
10565;SDS011;5331;48.148;16.326;2022-11-09T01:13:08;50.67;;;23.33;;
10565;SDS011;5331;48.148;16.326;2022-11-09T01:15:40;50.33;;;22.45;;
10565;SDS011;5331;48.148;16.326;2022-11-09T01:18:08;48.87;;;22.63;;
10565;SDS011;5331;48.148;16.326;2022-11-09T01:20:39;48.15;;;22.20;;
10565;SDS011;5331;48.148;16.326;2022-11-09T01:23:08;48.15;;;21.65;;
10565;SDS011;5331;48.148;16.326;2022-11-09T01:25:35;48.28;;;21.85;;
10565;SDS011;5331;48.148;16.326;2022-11-09T01:28:03;50.20;;;21.38;;
10565;SDS011;5331;48.148;16.326;2022-11-09T01:30:32;50.70;;;20.98;;
10565;SDS011;5331;48.148;16.326;2022-11-09T01:33:01;48.33;;;21.33;;
10565;SDS011;5331;48.148;16.326;2022-11-09T01:35:28;53.88;;;21.80;;
10565;SDS011;5331;48.148;16.326;2022-11-09T01:37:58;48.75;;;21.02;;
10565;SDS011;5331;48.148;16.326;2022-11-09T01:40:26;52.22;;;20.55;;
10565;SDS011;5331;48.148;16.326;2022-11-09T01:42:54;48.25;;;21.45;;
10565;SDS011;5331;48.148;16.326;2022-11-09T01:45:22;53.47;;;22.67;;
10565;SDS011;5331;48.148;16.326;2022-11-09T01:47:53;48.15;;;21.20;;
10565;SDS011;5331;48.148;16.326;2022-11-09T01:50:27;45.55;;;20.67;;
10565;SDS011;5331;48.148;16.326;2022-11-09T01:53:01;48.03;;;20.60;;
10565;SDS011;5331;48.148;16.326;2022-11-09T01:55:33;47.97;;;21.20;;
10565;SDS011;5331;48.148;16.326;2022-11-09T01:58:03;49.50;;;21.30;;
10565;SDS011;5331;48.148;16.326;2022-11-09T02:00:33;51.97;;;22.15;;
10565;SDS011;5331;48.148;16.326;2022-11-09T02:03:04;44.65;;;20.70;;
10565;SDS011;5331;48.148;16.326;2022-11-09T02:05:34;52.28;;;21.15;;
10565;SDS011;5331;48.148;16.326;2022-11-09T02:08:03;54.55;;;21.98;;
10565;SDS011;5331;48.148;16.326;2022-11-09T02:10:34;48.05;;;20.17;;
10565;SDS011;5331;48.148;16.326;2022-11-09T02:13:06;46.28;;;20.02;;
10565;SDS011;5331;48.148;16.326;2022-11-09T02:15:34;46.13;;;20.13;;
10565;SDS011;5331;48.148;16.326;2022-11-09T02:18:02;44.35;;;19.83;;
10565;SDS011;5331;48.148;16.326;2022-11-09T02:20:36;46.22;;;19.98;;
10565;SDS011;5331;48.148;16.326;2022-11-09T02:23:10;48.15;;;20.95;;
10565;SDS011;5331;48.148;16.326;2022-11-09T02:25:38;47.25;;;19.38;;
10565;SDS011;5331;48.148;16.326;2022-11-09T02:28:05;43.53;;;18.80;;
10565;SDS011;5331;48.148;16.326;2022-11-09T02:30:33;48.65;;;19.50;;
10565;SDS011;5331;48.148;16.326;2022-11-09T02:33:02;47.83;;;19.73;;
10565;SDS011;5331;48.148;16.326;2022-11-09T02:35:28;46.05;;;20.48;;
10565;SDS011;5331;48.148;16.326;2022-11-09T02:37:57;44.95;;;20.10;;
10565;SDS011;5331;48.148;16.326;2022-11-09T02:40:25;47.05;;;19.77;;
10565;SDS011;5331;48.148;16.326;2022-11-09T02:42:57;48.95;;;19.98;;
10565;SDS011;5331;48.148;16.326;2022-11-09T02:45:25;42.67;;;18.65;;
10565;SDS011;5331;48.148;16.326;2022-11-09T02:47:52;44.78;;;19.00;;
10565;SDS011;5331;48.148;16.326;2022-11-09T02:50:19;41.92;;;18.70;;
10565;SDS011;5331;48.148;16.326;2022-11-09T02:52:48;47.78;;;19.52;;
10565;SDS011;5331;48.148;16.326;2022-11-09T02:55:15;43.63;;;19.23;;
10565;SDS011;5331;48.148;16.326;2022-11-09T02:57:42;41.25;;;17.23;;
10565;SDS011;5331;48.148;16.326;2022-11-09T03:00:09;48.55;;;18.65;;
10565;SDS011;5331;48.148;16.326;2022-11-09T03:02:37;46.83;;;19.50;;
10565;SDS011;5331;48.148;16.326;2022-11-09T03:05:04;41.42;;;17.85;;
10565;SDS011;5331;48.148;16.326;2022-11-09T03:07:32;42.22;;;17.80;;
10565;SDS011;5331;48.148;16.326;2022-11-09T03:10:00;42.65;;;18.92;;
10565;SDS011;5331;48.148;16.326;2022-11-09T03:12:27;40.25;;;18.35;;
10565;SDS011;5331;48.148;16.326;2022-11-09T03:14:54;46.72;;;18.98;;
10565;SDS011;5331;48.148;16.326;2022-11-09T03:17:22;43.22;;;17.83;;
10565;SDS011;5331;48.148;16.326;2022-11-09T03:19:49;44.60;;;18.83;;
10565;SDS011;5331;48.148;16.326;2022-11-09T03:22:16;47.30;;;19.15;;
10565;SDS011;5331;48.148;16.326;2022-11-09T03:24:43;50.40;;;19.30;;
10565;SDS011;5331;48.148;16.326;2022-11-09T03:27:11;44.20;;;18.45;;
10565;SDS011;5331;48.148;16.326;2022-11-09T03:29:39;45.53;;;19.20;;
10565;SDS011;5331;48.148;16.326;2022-11-09T03:32:06;41.80;;;17.85;;
10565;SDS011;5331;48.148;16.326;2022-11-09T03:34:33;42.80;;;18.55;;
10565;SDS011;5331;48.148;16.326;2022-11-09T03:37:00;44.78;;;18.60;;
10565;SDS011;5331;48.148;16.326;2022-11-09T03:39:26;50.10;;;19.48;;
10565;SDS011;5331;48.148;16.326;2022-11-09T03:41:53;46.53;;;17.88;;
10565;SDS011;5331;48.148;16.326;2022-11-09T03:44:22;42.80;;;19.00;;
10565;SDS011;5331;48.148;16.326;2022-11-09T03:46:49;43.47;;;19.05;;
10565;SDS011;5331;48.148;16.326;2022-11-09T03:49:16;41.92;;;18.40;;
10565;SDS011;5331;48.148;16.326;2022-11-09T03:51:42;41.38;;;18.38;;
10565;SDS011;5331;48.148;16.326;2022-11-09T03:54:10;50.10;;;21.60;;
10565;SDS011;5331;48.148;16.326;2022-11-09T03:56:37;52.10;;;20.38;;
10565;SDS011;5331;48.148;16.326;2022-11-09T03:59:04;46.78;;;20.67;;
10565;SDS011;5331;48.148;16.326;2022-11-09T04:01:32;47.67;;;19.15;;
10565;SDS011;5331;48.148;16.326;2022-11-09T04:03:59;49.65;;;20.25;;
10565;SDS011;5331;48.148;16.326;2022-11-09T04:06:26;43.13;;;18.83;;
10565;SDS011;5331;48.148;16.326;2022-11-09T04:08:53;55.00;;;21.70;;
10565;SDS011;5331;48.148;16.326;2022-11-09T04:11:20;53.90;;;21.48;;
10565;SDS011;5331;48.148;16.326;2022-11-09T04:13:47;48.05;;;20.02;;
10565;SDS011;5331;48.148;16.326;2022-11-09T04:16:14;49.03;;;19.98;;
10565;SDS011;5331;48.148;16.326;2022-11-09T04:18:43;51.38;;;20.30;;
10565;SDS011;5331;48.148;16.326;2022-11-09T04:21:10;51.17;;;19.90;;
10565;SDS011;5331;48.148;16.326;2022-11-09T04:23:37;44.13;;;18.65;;
10565;SDS011;5331;48.148;16.326;2022-11-09T04:26:04;49.95;;;20.02;;
10565;SDS011;5331;48.148;16.326;2022-11-09T04:28:31;43.30;;;18.90;;
10565;SDS011;5331;48.148;16.326;2022-11-09T04:31:00;48.35;;;20.58;;
10565;SDS011;5331;48.148;16.326;2022-11-09T04:33:28;50.17;;;20.00;;
10565;SDS011;5331;48.148;16.326;2022-11-09T04:36:01;44.90;;;19.02;;
10565;SDS011;5331;48.148;16.326;2022-11-09T04:38:28;50.55;;;19.98;;
10565;SDS011;5331;48.148;16.326;2022-11-09T04:40:58;49.17;;;19.75;;
10565;SDS011;5331;48.148;16.326;2022-11-09T04:43:26;44.55;;;20.10;;
10565;SDS011;5331;48.148;16.326;2022-11-09T04:45:53;49.05;;;21.65;;
10565;SDS011;5331;48.148;16.326;2022-11-09T04:48:23;53.03;;;22.00;;
10565;SDS011;5331;48.148;16.326;2022-11-09T04:50:50;43.13;;;19.60;;
10565;SDS011;5331;48.148;16.326;2022-11-09T04:53:18;43.15;;;19.50;;
10565;SDS011;5331;48.148;16.326;2022-11-09T04:55:45;43.17;;;19.80;;
10565;SDS011;5331;48.148;16.326;2022-11-09T04:58:12;37.58;;;18.85;;
10565;SDS011;5331;48.148;16.326;2022-11-09T05:00:39;39.80;;;18.25;;
10565;SDS011;5331;48.148;16.326;2022-11-09T05:03:06;42.67;;;18.60;;
10565;SDS011;5331;48.148;16.326;2022-11-09T05:05:34;51.70;;;22.15;;
10565;SDS011;5331;48.148;16.326;2022-11-09T05:08:03;46.70;;;19.48;;
10565;SDS011;5331;48.148;16.326;2022-11-09T05:10:32;59.38;;;23.98;;
10565;SDS011;5331;48.148;16.326;2022-11-09T05:13:00;52.25;;;21.75;;
10565;SDS011;5331;48.148;16.326;2022-11-09T05:15:29;51.38;;;22.92;;
10565;SDS011;5331;48.148;16.326;2022-11-09T05:17:57;56.05;;;22.75;;
10565;SDS011;5331;48.148;16.326;2022-11-09T05:20:25;58.75;;;23.90;;
10565;SDS011;5331;48.148;16.326;2022-11-09T05:22:53;51.67;;;22.20;;
10565;SDS011;5331;48.148;16.326;2022-11-09T05:25:40;59.63;;;24.85;;
10565;SDS011;5331;48.148;16.326;2022-11-09T05:28:07;57.75;;;23.85;;
10565;SDS011;5331;48.148;16.326;2022-11-09T05:30:34;54.35;;;22.52;;
10565;SDS011;5331;48.148;16.326;2022-11-09T05:33:03;65.00;;;24.95;;
10565;SDS011;5331;48.148;16.326;2022-11-09T05:35:31;54.65;;;23.10;;
10565;SDS011;5331;48.148;16.326;2022-11-09T05:38:02;49.15;;;23.02;;
10565;SDS011;5331;48.148;16.326;2022-11-09T05:40:29;63.80;;;25.30;;
10565;SDS011;5331;48.148;16.326;2022-11-09T05:42:58;54.85;;;24.30;;
10565;SDS011;5331;48.148;16.326;2022-11-09T05:45:25;50.88;;;22.63;;
10565;SDS011;5331;48.148;16.326;2022-11-09T05:47:52;47.75;;;21.35;;
10565;SDS011;5331;48.148;16.326;2022-11-09T05:50:19;53.45;;;22.30;;
10565;SDS011;5331;48.148;16.326;2022-11-09T05:52:46;58.38;;;23.92;;
10565;SDS011;5331;48.148;16.326;2022-11-09T05:55:13;51.42;;;22.52;;
10565;SDS011;5331;48.148;16.326;2022-11-09T05:57:40;54.63;;;24.25;;
10565;SDS011;5331;48.148;16.326;2022-11-09T06:00:09;55.53;;;24.83;;
10565;SDS011;5331;48.148;16.326;2022-11-09T06:02:37;52.00;;;23.15;;
10565;SDS011;5331;48.148;16.326;2022-11-09T06:05:04;58.00;;;25.02;;
10565;SDS011;5331;48.148;16.326;2022-11-09T06:07:31;59.25;;;24.73;;
10565;SDS011;5331;48.148;16.326;2022-11-09T06:09:58;46.88;;;22.58;;
10565;SDS011;5331;48.148;16.326;2022-11-09T06:12:25;55.72;;;23.52;;
10565;SDS011;5331;48.148;16.326;2022-11-09T06:14:52;56.28;;;25.00;;
10565;SDS011;5331;48.148;16.326;2022-11-09T06:17:20;61.20;;;25.13;;
10565;SDS011;5331;48.148;16.326;2022-11-09T06:19:47;55.58;;;23.17;;
10565;SDS011;5331;48.148;16.326;2022-11-09T06:22:14;51.80;;;23.40;;
10565;SDS011;5331;48.148;16.326;2022-11-09T06:24:41;62.60;;;23.65;;
10565;SDS011;5331;48.148;16.326;2022-11-09T06:27:08;56.95;;;23.92;;
10565;SDS011;5331;48.148;16.326;2022-11-09T06:29:35;60.15;;;23.63;;
10565;SDS011;5331;48.148;16.326;2022-11-09T06:32:02;73.45;;;30.20;;
10565;SDS011;5331;48.148;16.326;2022-11-09T06:34:31;65.65;;;27.63;;
10565;SDS011;5331;48.148;16.326;2022-11-09T06:36:58;57.33;;;25.02;;
10565;SDS011;5331;48.148;16.326;2022-11-09T06:39:25;59.45;;;24.98;;
10565;SDS011;5331;48.148;16.326;2022-11-09T06:41:51;53.70;;;23.42;;
10565;SDS011;5331;48.148;16.326;2022-11-09T06:44:18;52.78;;;22.77;;
10565;SDS011;5331;48.148;16.326;2022-11-09T06:46:45;57.60;;;23.33;;
10565;SDS011;5331;48.148;16.326;2022-11-09T06:49:12;51.78;;;22.92;;
10565;SDS011;5331;48.148;16.326;2022-11-09T06:51:41;52.45;;;21.98;;
10565;SDS011;5331;48.148;16.326;2022-11-09T06:54:08;53.63;;;23.15;;
10565;SDS011;5331;48.148;16.326;2022-11-09T06:56:34;51.08;;;21.80;;
10565;SDS011;5331;48.148;16.326;2022-11-09T06:59:01;51.85;;;23.92;;
10565;SDS011;5331;48.148;16.326;2022-11-09T07:01:28;56.58;;;21.98;;
10565;SDS011;5331;48.148;16.326;2022-11-09T07:03:55;52.88;;;22.45;;
10565;SDS011;5331;48.148;16.326;2022-11-09T07:06:22;50.95;;;22.33;;
10565;SDS011;5331;48.148;16.326;2022-11-09T07:08:51;47.88;;;21.25;;
10565;SDS011;5331;48.148;16.326;2022-11-09T07:11:20;50.17;;;22.42;;
10565;SDS011;5331;48.148;16.326;2022-11-09T07:13:47;49.75;;;21.65;;
10565;SDS011;5331;48.148;16.326;2022-11-09T07:16:14;49.85;;;21.45;;
10565;SDS011;5331;48.148;16.326;2022-11-09T07:18:42;44.65;;;21.55;;
10565;SDS011;5331;48.148;16.326;2022-11-09T07:21:10;47.65;;;20.73;;
10565;SDS011;5331;48.148;16.326;2022-11-09T07:23:37;46.90;;;21.55;;
10565;SDS011;5331;48.148;16.326;2022-11-09T07:26:05;48.45;;;20.90;;
10565;SDS011;5331;48.148;16.326;2022-11-09T07:28:33;48.15;;;21.35;;
10565;SDS011;5331;48.148;16.326;2022-11-09T07:31:00;46.25;;;22.05;;
10565;SDS011;5331;48.148;16.326;2022-11-09T07:33:27;49.17;;;22.13;;
10565;SDS011;5331;48.148;16.326;2022-11-09T07:35:57;48.40;;;21.63;;
10565;SDS011;5331;48.148;16.326;2022-11-09T07:38:25;50.70;;;22.15;;
10565;SDS011;5331;48.148;16.326;2022-11-09T07:40:52;40.92;;;19.58;;
10565;SDS011;5331;48.148;16.326;2022-11-09T07:43:21;41.25;;;18.80;;
10565;SDS011;5331;48.148;16.326;2022-11-09T07:45:48;40.20;;;19.20;;
10565;SDS011;5331;48.148;16.326;2022-11-09T07:48:15;36.33;;;17.77;;
10565;SDS011;5331;48.148;16.326;2022-11-09T07:50:42;35.00;;;17.90;;
10565;SDS011;5331;48.148;16.326;2022-11-09T07:53:09;39.80;;;19.10;;
10565;SDS011;5331;48.148;16.326;2022-11-09T07:55:39;44.17;;;21.38;;
10565;SDS011;5331;48.148;16.326;2022-11-09T07:58:07;58.75;;;25.77;;
10565;SDS011;5331;48.148;16.326;2022-11-09T08:00:37;52.78;;;23.50;;
10565;SDS011;5331;48.148;16.326;2022-11-09T08:03:05;44.30;;;20.83;;
10565;SDS011;5331;48.148;16.326;2022-11-09T08:05:33;43.13;;;20.55;;
10565;SDS011;5331;48.148;16.326;2022-11-09T08:08:01;39.55;;;19.65;;
10565;SDS011;5331;48.148;16.326;2022-11-09T08:10:31;39.05;;;19.05;;
10565;SDS011;5331;48.148;16.326;2022-11-09T08:13:00;39.45;;;20.42;;
10565;SDS011;5331;48.148;16.326;2022-11-09T08:15:28;43.05;;;20.00;;
10565;SDS011;5331;48.148;16.326;2022-11-09T08:17:58;38.97;;;19.42;;
10565;SDS011;5331;48.148;16.326;2022-11-09T08:20:26;38.45;;;19.77;;
10565;SDS011;5331;48.148;16.326;2022-11-09T08:22:53;40.28;;;19.98;;
10565;SDS011;5331;48.148;16.326;2022-11-09T08:25:20;42.38;;;19.88;;
10565;SDS011;5331;48.148;16.326;2022-11-09T08:27:47;40.53;;;19.38;;
10565;SDS011;5331;48.148;16.326;2022-11-09T08:30:15;42.35;;;21.83;;
10565;SDS011;5331;48.148;16.326;2022-11-09T08:32:43;40.72;;;19.50;;
10565;SDS011;5331;48.148;16.326;2022-11-09T08:35:13;45.70;;;19.33;;
10565;SDS011;5331;48.148;16.326;2022-11-09T08:37:42;39.30;;;19.85;;
10565;SDS011;5331;48.148;16.326;2022-11-09T08:40:09;40.00;;;19.50;;
10565;SDS011;5331;48.148;16.326;2022-11-09T08:42:36;41.80;;;19.83;;
10565;SDS011;5331;48.148;16.326;2022-11-09T08:45:03;40.42;;;20.10;;
10565;SDS011;5331;48.148;16.326;2022-11-09T08:47:31;40.72;;;19.77;;
10565;SDS011;5331;48.148;16.326;2022-11-09T08:49:58;45.33;;;19.38;;
10565;SDS011;5331;48.148;16.326;2022-11-09T08:52:27;38.72;;;19.52;;
10565;SDS011;5331;48.148;16.326;2022-11-09T08:54:54;40.10;;;19.38;;
10565;SDS011;5331;48.148;16.326;2022-11-09T08:57:21;41.42;;;20.58;;
10565;SDS011;5331;48.148;16.326;2022-11-09T08:59:48;40.03;;;20.63;;
10565;SDS011;5331;48.148;16.326;2022-11-09T09:02:15;40.33;;;19.10;;
10565;SDS011;5331;48.148;16.326;2022-11-09T09:04:42;43.95;;;20.80;;
10565;SDS011;5331;48.148;16.326;2022-11-09T09:07:09;43.67;;;19.20;;
10565;SDS011;5331;48.148;16.326;2022-11-09T09:09:38;38.63;;;19.13;;
10565;SDS011;5331;48.148;16.326;2022-11-09T09:12:06;36.22;;;18.30;;
10565;SDS011;5331;48.148;16.326;2022-11-09T09:14:34;38.38;;;19.50;;
10565;SDS011;5331;48.148;16.326;2022-11-09T09:17:01;38.85;;;19.20;;
10565;SDS011;5331;48.148;16.326;2022-11-09T09:19:29;41.58;;;19.70;;
10565;SDS011;5331;48.148;16.326;2022-11-09T09:21:56;40.15;;;20.25;;
10565;SDS011;5331;48.148;16.326;2022-11-09T09:24:23;45.30;;;21.15;;
10565;SDS011;5331;48.148;16.326;2022-11-09T09:26:52;41.63;;;20.98;;
10565;SDS011;5331;48.148;16.326;2022-11-09T09:29:19;40.30;;;20.08;;
10565;SDS011;5331;48.148;16.326;2022-11-09T09:31:46;42.25;;;20.38;;
10565;SDS011;5331;48.148;16.326;2022-11-09T09:34:13;46.83;;;22.58;;
10565;SDS011;5331;48.148;16.326;2022-11-09T09:36:40;40.67;;;21.25;;
10565;SDS011;5331;48.148;16.326;2022-11-09T09:39:08;42.47;;;20.67;;
10565;SDS011;5331;48.148;16.326;2022-11-09T09:41:35;42.47;;;19.52;;
10565;SDS011;5331;48.148;16.326;2022-11-09T09:44:16;46.38;;;20.58;;
10565;SDS011;5331;48.148;16.326;2022-11-09T09:46:52;42.13;;;20.20;;
10565;SDS011;5331;48.148;16.326;2022-11-09T09:49:24;41.35;;;20.20;;
10565;SDS011;5331;48.148;16.326;2022-11-09T09:51:54;38.03;;;19.25;;
10565;SDS011;5331;48.148;16.326;2022-11-09T09:54:26;43.65;;;19.75;;
10565;SDS011;5331;48.148;16.326;2022-11-09T09:56:58;37.72;;;17.75;;
10565;SDS011;5331;48.148;16.326;2022-11-09T09:59:31;37.13;;;17.88;;
10565;SDS011;5331;48.148;16.326;2022-11-09T10:02:02;39.88;;;18.27;;
10565;SDS011;5331;48.148;16.326;2022-11-09T10:04:32;36.28;;;18.63;;
10565;SDS011;5331;48.148;16.326;2022-11-09T10:07:04;35.55;;;18.48;;
10565;SDS011;5331;48.148;16.326;2022-11-09T10:09:44;38.28;;;17.08;;
10565;SDS011;5331;48.148;16.326;2022-11-09T10:12:22;35.00;;;17.60;;
10565;SDS011;5331;48.148;16.326;2022-11-09T10:15:04;33.85;;;17.15;;
10565;SDS011;5331;48.148;16.326;2022-11-09T10:17:40;35.63;;;17.75;;
10565;SDS011;5331;48.148;16.326;2022-11-09T10:20:20;35.03;;;17.95;;
10565;SDS011;5331;48.148;16.326;2022-11-09T10:23:02;33.50;;;17.40;;
10565;SDS011;5331;48.148;16.326;2022-11-09T10:25:39;32.53;;;16.63;;
10565;SDS011;5331;48.148;16.326;2022-11-09T10:28:12;33.20;;;17.42;;
10565;SDS011;5331;48.148;16.326;2022-11-09T10:30:42;32.63;;;16.30;;
10565;SDS011;5331;48.148;16.326;2022-11-09T10:33:12;36.50;;;17.25;;
10565;SDS011;5331;48.148;16.326;2022-11-09T10:35:45;36.17;;;18.15;;
10565;SDS011;5331;48.148;16.326;2022-11-09T10:38:19;35.58;;;16.92;;
10565;SDS011;5331;48.148;16.326;2022-11-09T10:40:51;32.38;;;16.13;;
10565;SDS011;5331;48.148;16.326;2022-11-09T10:43:21;31.38;;;16.17;;
10565;SDS011;5331;48.148;16.326;2022-11-09T10:45:58;35.92;;;17.90;;
10565;SDS011;5331;48.148;16.326;2022-11-09T10:48:29;36.72;;;17.83;;
10565;SDS011;5331;48.148;16.326;2022-11-09T10:50:58;31.90;;;16.40;;
10565;SDS011;5331;48.148;16.326;2022-11-09T10:53:25;33.55;;;17.25;;
10565;SDS011;5331;48.148;16.326;2022-11-09T10:55:54;33.20;;;16.55;;
10565;SDS011;5331;48.148;16.326;2022-11-09T10:58:25;32.22;;;17.23;;
10565;SDS011;5331;48.148;16.326;2022-11-09T11:00:58;30.17;;;16.13;;
10565;SDS011;5331;48.148;16.326;2022-11-09T11:03:27;30.15;;;15.10;;
10565;SDS011;5331;48.148;16.326;2022-11-09T11:05:55;29.58;;;14.75;;
10565;SDS011;5331;48.148;16.326;2022-11-09T11:08:31;28.50;;;15.23;;
10565;SDS011;5331;48.148;16.326;2022-11-09T11:11:07;30.42;;;15.20;;
10565;SDS011;5331;48.148;16.326;2022-11-09T11:13:50;30.45;;;15.15;;
10565;SDS011;5331;48.148;16.326;2022-11-09T11:16:36;28.88;;;15.38;;
10565;SDS011;5331;48.148;16.326;2022-11-09T11:19:05;29.50;;;15.27;;
10565;SDS011;5331;48.148;16.326;2022-11-09T11:24:51;27.50;;;14.50;;
10565;SDS011;5331;48.148;16.326;2022-11-09T11:27:21;30.33;;;14.60;;
10565;SDS011;5331;48.148;16.326;2022-11-09T11:29:54;27.85;;;14.50;;
10565;SDS011;5331;48.148;16.326;2022-11-09T11:32:31;30.58;;;15.93;;
10565;SDS011;5331;48.148;16.326;2022-11-09T11:34:59;26.35;;;15.75;;
10565;SDS011;5331;48.148;16.326;2022-11-09T11:37:29;29.10;;;15.48;;
10565;SDS011;5331;48.148;16.326;2022-11-09T11:40:09;27.15;;;14.52;;
10565;SDS011;5331;48.148;16.326;2022-11-09T11:42:47;26.30;;;14.52;;
10565;SDS011;5331;48.148;16.326;2022-11-09T11:45:32;25.92;;;14.50;;
10565;SDS011;5331;48.148;16.326;2022-11-09T11:48:19;28.63;;;14.68;;
10565;SDS011;5331;48.148;16.326;2022-11-09T11:50:58;26.75;;;14.70;;
10565;SDS011;5331;48.148;16.326;2022-11-09T11:53:33;27.10;;;14.55;;
10565;SDS011;5331;48.148;16.326;2022-11-09T11:56:16;28.73;;;14.25;;
10565;SDS011;5331;48.148;16.326;2022-11-09T11:58:58;24.02;;;14.25;;
10565;SDS011;5331;48.148;16.326;2022-11-09T12:01:54;28.17;;;14.43;;
10565;SDS011;5331;48.148;16.326;2022-11-09T12:04:47;27.45;;;14.13;;
10565;SDS011;5331;48.148;16.326;2022-11-09T12:07:35;25.60;;;14.07;;
10565;SDS011;5331;48.148;16.326;2022-11-09T12:10:13;28.05;;;14.68;;
10565;SDS011;5331;48.148;16.326;2022-11-09T12:12:55;27.50;;;14.38;;
10565;SDS011;5331;48.148;16.326;2022-11-09T12:15:32;23.23;;;13.70;;
10565;SDS011;5331;48.148;16.326;2022-11-09T12:18:10;24.83;;;13.68;;
10565;SDS011;5331;48.148;16.326;2022-11-09T12:20:50;25.50;;;13.35;;
10565;SDS011;5331;48.148;16.326;2022-11-09T12:26:20;24.38;;;13.25;;
10565;SDS011;5331;48.148;16.326;2022-11-09T12:28:58;24.02;;;13.93;;
10565;SDS011;5331;48.148;16.326;2022-11-09T12:31:38;25.08;;;14.45;;
10565;SDS011;5331;48.148;16.326;2022-11-09T12:34:14;23.55;;;14.05;;
10565;SDS011;5331;48.148;16.326;2022-11-09T12:36:48;23.95;;;12.50;;
10565;SDS011;5331;48.148;16.326;2022-11-09T12:39:21;23.15;;;12.93;;
10565;SDS011;5331;48.148;16.326;2022-11-09T12:41:52;24.23;;;13.52;;
10565;SDS011;5331;48.148;16.326;2022-11-09T12:44:25;26.77;;;13.70;;
10565;SDS011;5331;48.148;16.326;2022-11-09T12:46:56;21.00;;;12.60;;
10565;SDS011;5331;48.148;16.326;2022-11-09T12:49:32;22.25;;;13.55;;
10565;SDS011;5331;48.148;16.326;2022-11-09T12:52:03;21.92;;;13.60;;
10565;SDS011;5331;48.148;16.326;2022-11-09T12:54:32;23.50;;;14.00;;
10565;SDS011;5331;48.148;16.326;2022-11-09T12:57:01;21.65;;;13.07;;
10565;SDS011;5331;48.148;16.326;2022-11-09T12:59:35;24.23;;;13.48;;
10565;SDS011;5331;48.148;16.326;2022-11-09T13:02:17;26.85;;;12.77;;
10565;SDS011;5331;48.148;16.326;2022-11-09T13:04:57;23.98;;;13.15;;
10565;SDS011;5331;48.148;16.326;2022-11-09T13:10:22;24.48;;;13.35;;
10565;SDS011;5331;48.148;16.326;2022-11-09T13:13:00;27.63;;;14.90;;
10565;SDS011;5331;48.148;16.326;2022-11-09T13:18:45;24.08;;;14.20;;
10565;SDS011;5331;48.148;16.326;2022-11-09T13:33:14;28.50;;;15.05;;
10565;SDS011;5331;48.148;16.326;2022-11-09T13:35:56;31.75;;;16.02;;
10565;SDS011;5331;48.148;16.326;2022-11-09T13:41:49;30.05;;;16.20;;
10565;SDS011;5331;48.148;16.326;2022-11-09T13:44:20;31.52;;;16.10;;
10565;SDS011;5331;48.148;16.326;2022-11-09T13:46:50;28.17;;;15.55;;
10565;SDS011;5331;48.148;16.326;2022-11-09T13:49:41;30.13;;;15.68;;
10565;SDS011;5331;48.148;16.326;2022-11-09T13:55:21;39.17;;;22.13;;
10565;SDS011;5331;48.148;16.326;2022-11-09T13:57:50;46.17;;;28.02;;
10565;SDS011;5331;48.148;16.326;2022-11-09T14:00:20;29.58;;;18.92;;
10565;SDS011;5331;48.148;16.326;2022-11-09T14:02:53;28.92;;;17.70;;
10565;SDS011;5331;48.148;16.326;2022-11-09T14:05:23;27.15;;;16.42;;
10565;SDS011;5331;48.148;16.326;2022-11-09T14:07:51;30.65;;;16.25;;
10565;SDS011;5331;48.148;16.326;2022-11-09T14:10:22;24.77;;;14.55;;
10565;SDS011;5331;48.148;16.326;2022-11-09T14:13:02;26.77;;;14.43;;
10565;SDS011;5331;48.148;16.326;2022-11-09T14:15:43;26.50;;;13.73;;
10565;SDS011;5331;48.148;16.326;2022-11-09T14:18:20;23.20;;;14.40;;
10565;SDS011;5331;48.148;16.326;2022-11-09T14:21:06;24.65;;;14.60;;
10565;SDS011;5331;48.148;16.326;2022-11-09T14:23:40;24.30;;;13.57;;
10565;SDS011;5331;48.148;16.326;2022-11-09T14:26:07;26.88;;;15.55;;
10565;SDS011;5331;48.148;16.326;2022-11-09T14:28:40;28.08;;;16.05;;
10565;SDS011;5331;48.148;16.326;2022-11-09T14:31:19;28.33;;;15.85;;
10565;SDS011;5331;48.148;16.326;2022-11-09T14:33:57;27.02;;;14.95;;
10565;SDS011;5331;48.148;16.326;2022-11-09T14:36:25;26.38;;;15.25;;
10565;SDS011;5331;48.148;16.326;2022-11-09T14:38:54;27.27;;;14.95;;
10565;SDS011;5331;48.148;16.326;2022-11-09T14:41:23;30.75;;;15.80;;
10565;SDS011;5331;48.148;16.326;2022-11-09T14:43:51;26.85;;;16.10;;
10565;SDS011;5331;48.148;16.326;2022-11-09T14:46:22;29.95;;;15.95;;
10565;SDS011;5331;48.148;16.326;2022-11-09T14:48:52;26.98;;;14.98;;
10565;SDS011;5331;48.148;16.326;2022-11-09T14:51:22;23.63;;;13.88;;
10565;SDS011;5331;48.148;16.326;2022-11-09T14:53:53;26.73;;;14.18;;
10565;SDS011;5331;48.148;16.326;2022-11-09T14:56:23;25.80;;;14.05;;
10565;SDS011;5331;48.148;16.326;2022-11-09T14:58:51;26.08;;;14.40;;
10565;SDS011;5331;48.148;16.326;2022-11-09T15:01:20;27.35;;;15.38;;
10565;SDS011;5331;48.148;16.326;2022-11-09T15:06:32;25.02;;;14.07;;
10565;SDS011;5331;48.148;16.326;2022-11-09T15:09:04;20.05;;;12.50;;
10565;SDS011;5331;48.148;16.326;2022-11-09T15:11:33;21.70;;;12.90;;